createdAt,value
2017-04-03T00:00:20.064Z,1019.43
2017-04-03T00:01:00.724Z,1019.42
2017-04-03T00:01:41.371Z,1019.43
2017-04-03T00:02:21.948Z,1019.47
2017-04-03T00:03:02.675Z,1019.5
2017-04-03T00:03:43.335Z,1019.5
2017-04-03T00:04:23.899Z,1019.48
2017-04-03T00:05:04.522Z,1019.46
2017-04-03T00:05:45.189Z,1019.46
2017-04-03T00:06:25.744Z,1019.49
2017-04-03T00:07:06.390Z,1019.53
2017-04-03T00:07:47.038Z,1019.49
2017-04-03T00:08:27.590Z,1019.49
2017-04-03T00:09:08.308Z,1019.51
2017-04-03T00:09:48.998Z,1019.52
2017-04-03T00:10:29.650Z,1019.51
2017-04-03T00:11:10.199Z,1019.51
2017-04-03T00:11:50.908Z,1019.48
2017-04-03T00:12:31.511Z,1019.52
2017-04-03T00:13:12.234Z,1019.54
2017-04-03T00:13:52.862Z,1019.53
2017-04-03T00:14:33.521Z,1019.54
2017-04-03T00:15:14.180Z,1019.56
2017-04-03T00:15:54.843Z,1019.54
2017-04-03T00:16:35.495Z,1019.54
2017-04-03T00:17:17.159Z,1019.5
2017-04-03T00:17:57.824Z,1019.53
2017-04-03T00:18:38.471Z,1019.51
2017-04-03T00:19:19.116Z,1019.52
2017-04-03T00:19:59.787Z,1019.6
2017-04-03T00:20:40.439Z,1019.57
2017-04-03T00:21:21.079Z,1019.58
2017-04-03T00:22:02.759Z,1019.58
2017-04-03T00:22:43.448Z,1019.5
2017-04-03T00:23:24.103Z,1019.54
2017-04-03T00:24:04.670Z,1019.52
2017-04-03T00:24:45.363Z,1019.55
2017-04-03T00:25:26.062Z,1019.51
2017-04-03T00:26:06.714Z,1019.54
2017-04-03T00:26:47.308Z,1019.53
2017-04-03T00:27:27.987Z,1019.55
2017-04-03T00:28:08.679Z,1019.54
2017-04-03T00:28:49.325Z,1019.53
2017-04-03T00:29:29.919Z,1019.52
2017-04-03T00:30:10.890Z,1019.55
2017-04-03T00:30:51.594Z,1019.5
2017-04-03T00:31:33.270Z,1019.53
2017-04-03T00:32:13.873Z,1019.51
2017-04-03T00:32:54.538Z,1019.51
2017-04-03T00:33:35.227Z,1019.48
2017-04-03T00:34:15.882Z,1019.44
2017-04-03T00:34:56.453Z,1019.5
2017-04-03T00:35:37.164Z,1019.48
2017-04-03T00:36:17.840Z,1019.46
2017-04-03T00:36:58.527Z,1019.46
2017-04-03T00:37:39.146Z,1019.51
2017-04-03T00:38:19.809Z,1019.49
2017-04-03T00:39:00.563Z,1019.47
2017-04-03T00:39:41.205Z,1019.5
2017-04-03T00:40:21.861Z,1019.52
2017-04-03T00:41:02.616Z,1019.51
2017-04-03T00:41:43.199Z,1019.51
2017-04-03T00:42:23.931Z,1019.52
2017-04-03T00:43:04.680Z,1019.5
2017-04-03T00:43:45.257Z,1019.53
2017-04-03T00:44:25.878Z,1019.55
2017-04-03T00:45:06.538Z,1019.54
2017-04-03T00:45:47.922Z,1019.56
2017-04-03T00:46:28.550Z,1019.59
2017-04-03T00:47:09.227Z,1019.58
2017-04-03T00:47:49.861Z,1019.57
2017-04-03T00:48:30.520Z,1019.57
2017-04-03T00:49:11.166Z,1019.59
2017-04-03T00:49:51.824Z,1019.58
2017-04-03T00:50:32.471Z,1019.56
2017-04-03T00:51:13.132Z,1019.59
2017-04-03T00:51:53.708Z,1019.55
2017-04-03T00:52:34.435Z,1019.54
2017-04-03T00:53:15.082Z,1019.55
2017-04-03T00:53:55.741Z,1019.55
2017-04-03T00:54:36.315Z,1019.51
2017-04-03T00:55:17.013Z,1019.52
2017-04-03T00:55:57.695Z,1019.5
2017-04-03T00:56:38.354Z,1019.53
2017-04-03T00:57:18.923Z,1019.5
2017-04-03T00:57:59.654Z,1019.51
2017-04-03T00:58:40.322Z,1019.51
2017-04-03T00:59:20.878Z,1019.54
2017-04-03T01:00:01.523Z,1019.53
2017-04-03T01:00:42.167Z,1019.54
2017-04-03T01:01:22.749Z,1019.58
2017-04-03T01:02:03.468Z,1019.59
2017-04-03T01:02:44.125Z,1019.56
2017-04-03T01:03:24.723Z,1019.58
2017-04-03T01:04:05.427Z,1019.59
2017-04-03T01:04:46.086Z,1019.61
2017-04-03T01:05:26.652Z,1019.57
2017-04-03T01:06:07.303Z,1019.59
2017-04-03T01:06:47.952Z,1019.61
2017-04-03T01:07:28.699Z,1019.6
2017-04-03T01:08:09.249Z,1019.61
2017-04-03T01:08:49.903Z,1019.61
2017-04-03T01:09:30.551Z,1019.6
2017-04-03T01:10:11.209Z,1019.6
2017-04-03T01:10:51.969Z,1019.6
2017-04-03T01:11:32.625Z,1019.6
2017-04-03T01:12:13.188Z,1019.62
2017-04-03T01:12:53.923Z,1019.65
2017-04-03T01:13:34.691Z,1019.64
2017-04-03T01:14:16.075Z,1019.61
2017-04-03T01:14:56.802Z,1019.62
2017-04-03T01:15:37.457Z,1019.6
2017-04-03T01:16:18.035Z,1019.67
2017-04-03T01:16:58.762Z,1019.63
2017-04-03T01:17:39.518Z,1019.64
2017-04-03T01:18:20.278Z,1019.65
2017-04-03T01:19:01.030Z,1019.66
2017-04-03T01:19:41.786Z,1019.66
2017-04-03T01:20:22.438Z,1019.67
2017-04-03T01:21:03.196Z,1019.69
2017-04-03T01:21:43.764Z,1019.66
2017-04-03T01:22:24.451Z,1019.7
2017-04-03T01:23:05.150Z,1019.69
2017-04-03T01:23:45.914Z,1019.67
2017-04-03T01:24:26.490Z,1019.7
2017-04-03T01:25:07.167Z,1019.7
2017-04-03T01:25:47.849Z,1019.71
2017-04-03T01:26:28.523Z,1019.68
2017-04-03T01:27:09.083Z,1019.69
2017-04-03T01:27:49.836Z,1019.72
2017-04-03T01:28:30.538Z,1019.68
2017-04-03T01:29:11.301Z,1019.68
2017-04-03T01:29:52.057Z,1019.69
2017-04-03T01:30:32.807Z,1019.67
2017-04-03T01:31:13.458Z,1019.69
2017-04-03T01:31:54.208Z,1019.72
2017-04-03T01:32:34.861Z,1019.72
2017-04-03T01:33:15.520Z,1019.75
2017-04-03T01:33:56.269Z,1019.77
2017-04-03T01:34:36.923Z,1019.77
2017-04-03T01:35:17.573Z,1019.78
2017-04-03T01:35:58.332Z,1019.8
2017-04-03T01:36:38.984Z,1019.76
2017-04-03T01:37:19.747Z,1019.72
2017-04-03T01:38:00.442Z,1019.8
2017-04-03T01:38:41.011Z,1019.8
2017-04-03T01:39:21.750Z,1019.78
2017-04-03T01:40:02.504Z,1019.8
2017-04-03T01:40:43.102Z,1019.8
2017-04-03T01:41:23.801Z,1019.83
2017-04-03T01:42:04.463Z,1019.81
2017-04-03T01:42:45.118Z,1019.82
2017-04-03T01:43:25.773Z,1019.84
2017-04-03T01:44:06.415Z,1019.83
2017-04-03T01:44:47.175Z,1019.83
2017-04-03T01:45:27.824Z,1019.81
2017-04-03T01:46:08.580Z,1019.86
2017-04-03T01:46:49.339Z,1019.85
2017-04-03T01:47:29.919Z,1019.86
2017-04-03T01:48:10.643Z,1019.86
2017-04-03T01:48:51.304Z,1019.85
2017-04-03T01:49:31.848Z,1019.82
2017-04-03T01:50:12.492Z,1019.84
2017-04-03T01:50:53.150Z,1019.84
2017-04-03T01:51:33.734Z,1019.83
2017-04-03T01:52:14.459Z,1019.82
2017-04-03T01:52:55.222Z,1019.81
2017-04-03T01:53:35.973Z,1019.84
2017-04-03T01:54:16.727Z,1019.85
2017-04-03T01:54:57.476Z,1019.85
2017-04-03T01:55:38.242Z,1019.77
2017-04-03T01:56:18.889Z,1019.79
2017-04-03T01:56:59.640Z,1019.79
2017-04-03T01:57:40.296Z,1019.8
2017-04-03T01:58:20.893Z,1019.77
2017-04-03T01:59:01.571Z,1019.79
2017-04-03T01:59:42.253Z,1019.81
2017-04-03T02:00:22.912Z,1019.82
2017-04-03T02:01:03.505Z,1019.82
2017-04-03T02:01:44.177Z,1019.82
2017-04-03T02:02:24.869Z,1019.8
2017-04-03T02:03:05.457Z,1019.82
2017-04-03T02:03:46.187Z,1019.81
2017-04-03T02:04:26.936Z,1019.84
2017-04-03T02:05:07.512Z,1019.83
2017-04-03T02:05:48.243Z,1019.8
2017-04-03T02:06:28.992Z,1019.82
2017-04-03T02:07:09.584Z,1019.78
2017-04-03T02:07:50.293Z,1019.8
2017-04-03T02:08:30.965Z,1019.82
2017-04-03T02:09:11.718Z,1019.78
2017-04-03T02:09:52.467Z,1019.79
2017-04-03T02:10:33.214Z,1019.8
2017-04-03T02:11:13.890Z,1019.83
2017-04-03T02:11:54.628Z,1019.79
2017-04-03T02:12:35.391Z,1019.8
2017-04-03T02:13:15.959Z,1019.78
2017-04-03T02:13:56.645Z,1019.81
2017-04-03T02:14:37.343Z,1019.85
2017-04-03T02:15:18.096Z,1019.83
2017-04-03T02:15:58.665Z,1019.8
2017-04-03T02:16:39.352Z,1019.83
2017-04-03T02:17:20.039Z,1019.83
2017-04-03T02:18:00.704Z,1019.86
2017-04-03T02:18:41.461Z,1019.89
2017-04-03T02:19:22.218Z,1019.87
2017-04-03T02:20:02.980Z,1019.88
2017-04-03T02:20:43.731Z,1019.87
2017-04-03T02:21:24.492Z,1019.87
2017-04-03T02:22:05.236Z,1019.9
2017-04-03T02:22:46.817Z,1019.91
2017-04-03T02:23:27.390Z,1019.94
2017-04-03T02:24:08.074Z,1019.9
2017-04-03T02:24:48.776Z,1019.91
2017-04-03T02:25:29.525Z,1019.96
2017-04-03T02:26:10.101Z,1019.97
2017-04-03T02:26:50.788Z,1019.96
2017-04-03T02:27:31.494Z,1019.93
2017-04-03T02:28:12.073Z,1019.96
2017-04-03T02:28:52.819Z,1019.95
2017-04-03T02:29:34.578Z,1019.95
2017-04-03T02:30:15.158Z,1019.91
2017-04-03T02:30:55.885Z,1019.98
2017-04-03T02:31:36.632Z,1019.98
2017-04-03T02:32:17.201Z,1020.03
2017-04-03T02:32:57.957Z,1019.98
2017-04-03T02:33:38.693Z,1019.95
2017-04-03T02:34:19.456Z,1020.03
2017-04-03T02:35:00.211Z,1020.05
2017-04-03T02:35:40.965Z,1019.97
2017-04-03T02:36:21.725Z,1020.01
2017-04-03T02:37:02.294Z,1020.04
2017-04-03T02:37:42.981Z,1020.04
2017-04-03T02:38:23.671Z,1020.06
2017-04-03T02:39:04.436Z,1020.09
2017-04-03T02:39:45.051Z,1020.04
2017-04-03T02:40:28.467Z,1020.03
2017-04-03T02:41:09.069Z,1020.02
2017-04-03T02:41:50.761Z,1020.05
2017-04-03T02:42:37.029Z,1020.04
2017-04-03T02:43:18.707Z,1020.08
2017-04-03T02:43:59.360Z,1020.05
2017-04-03T02:44:41.958Z,1020.07
2017-04-03T02:45:23.634Z,1020.08
2017-04-03T02:46:04.290Z,1020.05
2017-04-03T02:46:45.965Z,1020.07
2017-04-03T02:47:26.532Z,1020.08
2017-04-03T02:48:07.115Z,1020.08
2017-04-03T02:48:47.739Z,1020.07
2017-04-03T02:49:29.398Z,1020.06
2017-04-03T02:50:09.968Z,1020.08
2017-04-03T02:50:50.560Z,1020.06
2017-04-03T02:51:31.164Z,1020.06
2017-04-03T02:52:12.829Z,1020.05
2017-04-03T02:52:55.428Z,1020.06
2017-04-03T02:53:36.080Z,1020.05
2017-04-03T02:54:17.759Z,1020.06
2017-04-03T02:54:59.436Z,1020.06
2017-04-03T02:55:40.088Z,1020.03
2017-04-03T02:56:21.763Z,1020.08
2017-04-03T02:57:02.417Z,1020.09
2017-04-03T02:57:43.069Z,1020.1
2017-04-03T02:58:25.667Z,1020.09
2017-04-03T02:59:08.380Z,1020.1
2017-04-03T02:59:49.023Z,1020.1
2017-04-03T03:00:29.677Z,1020.11
2017-04-03T03:01:20.979Z,1020.11
2017-04-03T03:02:06.542Z,1020.11
2017-04-03T03:02:47.198Z,1020.15
2017-04-03T03:03:28.873Z,1020.13
2017-04-03T03:04:09.529Z,1020.14
2017-04-03T03:04:51.198Z,1020.14
2017-04-03T03:05:31.858Z,1020.17
2017-04-03T03:06:17.015Z,1020.18
2017-04-03T03:06:57.669Z,1020.19
2017-04-03T03:07:38.233Z,1020.19
2017-04-03T03:08:18.819Z,1020.21
2017-04-03T03:09:00.448Z,1020.2
2017-04-03T03:09:41.203Z,1020.21
2017-04-03T03:10:21.797Z,1020.22
2017-04-03T03:11:03.377Z,1020.21
2017-04-03T03:11:46.031Z,1020.23
2017-04-03T03:12:27.708Z,1020.23
2017-04-03T03:13:08.281Z,1020.24
2017-04-03T03:13:48.912Z,1020.19
2017-04-03T03:14:30.582Z,1020.21
2017-04-03T03:15:11.160Z,1020.23
2017-04-03T03:15:51.798Z,1020.19
2017-04-03T03:16:32.439Z,1020.24
2017-04-03T03:17:13.016Z,1020.23
2017-04-03T03:17:53.657Z,1020.21
2017-04-03T03:18:34.292Z,1020.18
2017-04-03T03:19:14.950Z,1020.19
2017-04-03T03:19:55.602Z,1020.21
2017-04-03T03:20:37.280Z,1020.2
2017-04-03T03:21:18.954Z,1020.21
2017-04-03T03:22:01.555Z,1020.25
2017-04-03T03:22:42.205Z,1020.22
2017-04-03T03:23:22.858Z,1020.23
2017-04-03T03:24:05.460Z,1020.21
2017-04-03T03:24:47.136Z,1020.23
2017-04-03T03:25:29.731Z,1020.22
2017-04-03T03:26:10.387Z,1020.22
2017-04-03T03:26:52.987Z,1020.21
2017-04-03T03:27:33.624Z,1020.28
2017-04-03T03:28:14.302Z,1020.2
2017-04-03T03:28:54.943Z,1020.26
2017-04-03T03:29:35.522Z,1020.24
2017-04-03T03:30:18.205Z,1020.22
2017-04-03T03:31:05.504Z,1020.21
2017-04-03T03:31:46.084Z,1020.24
2017-04-03T03:32:26.716Z,1020.24
2017-04-03T03:33:07.371Z,1020.24
2017-04-03T03:33:53.863Z,1020.2
2017-04-03T03:34:35.537Z,1020.21
2017-04-03T03:35:16.227Z,1020.2
2017-04-03T03:35:58.874Z,1020.19
2017-04-03T03:36:40.569Z,1020.16
2017-04-03T03:37:21.216Z,1020.2
2017-04-03T03:38:01.868Z,1020.18
2017-04-03T03:38:42.442Z,1020.21
2017-04-03T03:39:23.012Z,1020.22
2017-04-03T03:40:03.635Z,1020.28
2017-04-03T03:40:45.287Z,1020.24
2017-04-03T03:41:25.875Z,1020.26
2017-04-03T03:42:08.503Z,1020.25
2017-04-03T03:42:50.131Z,1020.25
2017-04-03T03:43:30.783Z,1020.26
2017-04-03T03:44:12.494Z,1020.27
2017-04-03T03:44:53.112Z,1020.25
2017-04-03T03:45:33.778Z,1020.25
2017-04-03T03:46:15.421Z,1020.23
2017-04-03T03:46:56.088Z,1020.26
2017-04-03T03:47:36.792Z,1020.27
2017-04-03T03:48:19.431Z,1020.26
2017-04-03T03:49:00.101Z,1020.24
2017-04-03T03:49:40.732Z,1020.28
2017-04-03T03:50:23.353Z,1020.24
2017-04-03T03:51:05.029Z,1020.25
2017-04-03T03:51:47.721Z,1020.28
2017-04-03T03:52:29.405Z,1020.25
2017-04-03T03:53:11.066Z,1020.24
2017-04-03T03:53:51.723Z,1020.24
2017-04-03T03:54:32.377Z,1020.25
2017-04-03T03:55:19.588Z,1020.24
2017-04-03T03:56:00.237Z,1020.22
2017-04-03T03:56:42.835Z,1020.23
2017-04-03T03:57:23.487Z,1020.23
2017-04-03T03:58:04.144Z,1020.26
2017-04-03T03:58:49.503Z,1020.26
2017-04-03T03:59:30.156Z,1020.26
2017-04-03T04:00:10.811Z,1020.26
2017-04-03T04:00:53.407Z,1020.28
2017-04-03T04:01:34.054Z,1020.25
2017-04-03T04:02:14.714Z,1020.26
2017-04-03T04:02:55.299Z,1020.26
2017-04-03T04:03:35.914Z,1020.21
2017-04-03T04:04:16.569Z,1020.21
2017-04-03T04:04:57.166Z,1020.28
2017-04-03T04:05:38.803Z,1020.24
2017-04-03T04:06:26.100Z,1020.25
2017-04-03T04:07:06.686Z,1020.26
2017-04-03T04:07:47.307Z,1020.24
2017-04-03T04:08:28.066Z,1020.23
2017-04-03T04:09:13.425Z,1020.23
2017-04-03T04:09:54.083Z,1020.25
2017-04-03T04:10:34.735Z,1020.24
2017-04-03T04:11:15.384Z,1020.23
2017-04-03T04:11:57.059Z,1020.2
2017-04-03T04:12:37.721Z,1020.23
2017-04-03T04:13:19.399Z,1020.23
2017-04-03T04:14:00.047Z,1020.23
2017-04-03T04:14:41.722Z,1020.19
2017-04-03T04:15:23.401Z,1020.24
2017-04-03T04:16:04.052Z,1020.22
2017-04-03T04:16:44.706Z,1020.24
2017-04-03T04:17:25.358Z,1020.21
2017-04-03T04:18:06.008Z,1020.23
2017-04-03T04:18:46.665Z,1020.26
2017-04-03T04:19:27.315Z,1020.27
2017-04-03T04:20:07.971Z,1020.27
2017-04-03T04:20:49.648Z,1020.28
2017-04-03T04:21:31.325Z,1020.27
2017-04-03T04:22:11.926Z,1020.29
2017-04-03T04:22:53.492Z,1020.3
2017-04-03T04:23:34.103Z,1020.34
2017-04-03T04:24:14.679Z,1020.29
2017-04-03T04:25:01.358Z,1020.35
2017-04-03T04:25:41.994Z,1020.37
2017-04-03T04:26:22.581Z,1020.38
2017-04-03T04:27:08.844Z,1020.38
2017-04-03T04:27:50.510Z,1020.34
2017-04-03T04:28:31.088Z,1020.36
2017-04-03T04:29:11.723Z,1020.36
2017-04-03T04:29:53.388Z,1020.41
2017-04-03T04:30:33.971Z,1020.45
2017-04-03T04:31:15.628Z,1020.43
2017-04-03T04:31:56.276Z,1020.46
2017-04-03T04:32:36.862Z,1020.45
2017-04-03T04:33:18.500Z,1020.46
2017-04-03T04:33:59.160Z,1020.49
2017-04-03T04:34:39.815Z,1020.45
2017-04-03T04:35:20.461Z,1020.48
2017-04-03T04:36:01.106Z,1020.49
2017-04-03T04:36:42.817Z,1020.51
2017-04-03T04:37:24.482Z,1020.51
2017-04-03T04:38:05.121Z,1020.48
2017-04-03T04:38:45.738Z,1020.54
2017-04-03T04:39:26.436Z,1020.53
2017-04-03T04:40:07.079Z,1020.54
2017-04-03T04:40:47.656Z,1020.57
2017-04-03T04:41:33.817Z,1020.63
2017-04-03T04:42:15.494Z,1020.57
2017-04-03T04:42:56.087Z,1020.62
2017-04-03T04:43:37.786Z,1020.58
2017-04-03T04:44:20.438Z,1020.63
2017-04-03T04:45:02.091Z,1020.61
2017-04-03T04:45:42.669Z,1020.62
2017-04-03T04:46:24.374Z,1020.59
2017-04-03T04:47:06.004Z,1020.63
2017-04-03T04:47:46.645Z,1020.63
2017-04-03T04:48:27.219Z,1020.63
2017-04-03T04:49:12.504Z,1020.63
2017-04-03T04:49:53.103Z,1020.62
2017-04-03T04:50:33.757Z,1020.65
2017-04-03T04:51:14.353Z,1020.65
2017-04-03T04:51:56.061Z,1020.67
2017-04-03T04:52:36.654Z,1020.67
2017-04-03T04:53:17.300Z,1020.67
2017-04-03T04:53:57.885Z,1020.64
2017-04-03T04:54:38.504Z,1020.69
2017-04-03T04:55:20.175Z,1020.65
2017-04-03T04:56:00.760Z,1020.67
2017-04-03T04:56:41.388Z,1020.7
2017-04-03T04:57:22.035Z,1020.68
2017-04-03T04:58:02.616Z,1020.67
2017-04-03T04:58:43.232Z,1020.7
2017-04-03T04:59:23.890Z,1020.65
2017-04-03T05:00:04.451Z,1020.65
2017-04-03T05:00:46.143Z,1020.67
2017-04-03T05:01:28.815Z,1020.68
2017-04-03T05:02:09.398Z,1020.7
2017-04-03T05:02:50.021Z,1020.67
2017-04-03T05:03:30.672Z,1020.68
2017-04-03T05:04:11.327Z,1020.67
2017-04-03T05:04:51.974Z,1020.69
2017-04-03T05:05:32.633Z,1020.65
2017-04-03T05:06:17.794Z,1020.66
2017-04-03T05:07:05.298Z,1020.65
2017-04-03T05:07:45.947Z,1020.64
2017-04-03T05:08:26.612Z,1020.67
2017-04-03T05:09:07.261Z,1020.67
2017-04-03T05:09:47.912Z,1020.7
2017-04-03T05:10:28.571Z,1020.7
2017-04-03T05:11:09.218Z,1020.72
2017-04-03T05:11:49.882Z,1020.72
2017-04-03T05:12:30.435Z,1020.76
2017-04-03T05:13:11.020Z,1020.79
2017-04-03T05:13:51.624Z,1020.76
2017-04-03T05:14:32.289Z,1020.8
2017-04-03T05:15:12.855Z,1020.79
2017-04-03T05:15:53.445Z,1020.77
2017-04-03T05:16:34.033Z,1020.86
2017-04-03T05:17:14.683Z,1020.83
2017-04-03T05:17:55.269Z,1020.81
2017-04-03T05:18:35.887Z,1020.86
2017-04-03T05:19:16.539Z,1020.84
2017-04-03T05:19:57.108Z,1020.83
2017-04-03T05:20:38.769Z,1020.86
2017-04-03T05:21:20.447Z,1020.88
2017-04-03T05:22:01.073Z,1020.87
2017-04-03T05:22:41.765Z,1020.95
2017-04-03T05:23:22.401Z,1020.95
2017-04-03T05:24:03.073Z,1020.94
2017-04-03T05:24:43.723Z,1020.96
2017-04-03T05:25:24.373Z,1020.95
2017-04-03T05:26:05.021Z,1020.92
2017-04-03T05:26:45.672Z,1020.95
2017-04-03T05:27:26.329Z,1020.93
2017-04-03T05:28:06.992Z,1020.94
2017-04-03T05:28:47.634Z,1020.92
2017-04-03T05:29:28.282Z,1020.94
2017-04-03T05:30:13.845Z,1020.95
2017-04-03T05:30:54.519Z,1020.98
2017-04-03T05:31:45.811Z,1021
2017-04-03T05:32:38.342Z,1020.98
2017-04-03T05:33:18.997Z,1021.01
2017-04-03T05:33:59.566Z,1021.04
2017-04-03T05:34:55.930Z,1021.02
2017-04-03T05:35:37.538Z,1021.04
2017-04-03T05:36:23.101Z,1020.99
2017-04-03T05:37:03.678Z,1021.05
2017-04-03T05:42:33.229Z,1021.07
2017-04-03T05:43:13.829Z,1021.06
2017-04-03T05:43:54.397Z,1021.03
2017-04-03T05:44:35.030Z,1021.07
2017-04-03T05:45:15.682Z,1021.1
2017-04-03T05:45:56.274Z,1021.11
2017-04-03T05:46:41.691Z,1021.1
2017-04-03T05:47:29.009Z,1021.1
2017-04-03T05:48:14.476Z,1021.1
2017-04-03T05:48:55.126Z,1021.11
2017-04-03T05:49:35.792Z,1021.1
2017-04-03T05:50:16.453Z,1021.09
2017-04-03T05:50:57.086Z,1021.13
2017-04-03T05:51:38.755Z,1021.15
2017-04-03T05:52:19.418Z,1021.13
2017-04-03T05:53:02.013Z,1021.17
2017-04-03T05:53:44.615Z,1021.19
2017-04-03T05:54:25.265Z,1021.19
2017-04-03T05:55:05.911Z,1021.18
2017-04-03T05:55:52.503Z,1021.22
2017-04-03T05:56:33.161Z,1021.2
2017-04-03T05:57:13.817Z,1021.23
2017-04-03T05:57:54.493Z,1021.26
2017-04-03T05:58:47.001Z,1021.25
2017-04-03T05:59:27.676Z,1021.23
2017-04-03T06:00:08.307Z,1021.25
2017-04-03T06:00:49.984Z,1021.22
2017-04-03T06:01:30.636Z,1021.23
2017-04-03T06:02:11.289Z,1021.26
2017-04-03T06:02:51.944Z,1021.22
2017-04-03T06:03:32.599Z,1021.22
2017-04-03T06:04:14.270Z,1021.23
2017-04-03T06:04:56.974Z,1021.25
2017-04-03T06:05:42.409Z,1021.25
2017-04-03T06:06:22.995Z,1021.24
2017-04-03T06:07:05.582Z,1021.29
2017-04-03T06:07:46.166Z,1021.25
2017-04-03T06:08:26.755Z,1021.28
2017-04-03T06:09:07.416Z,1021.24
2017-04-03T06:09:49.128Z,1021.28
2017-04-03T06:10:30.763Z,1021.3
2017-04-03T06:11:11.413Z,1021.3
2017-04-03T06:11:52.996Z,1021.33
2017-04-03T06:12:34.610Z,1021.33
2017-04-03T06:13:19.875Z,1021.3
2017-04-03T06:14:00.539Z,1021.35
2017-04-03T06:14:41.184Z,1021.34
2017-04-03T06:15:21.838Z,1021.35
2017-04-03T06:17:22.290Z,1021.38
2017-04-03T06:18:02.905Z,1021.38
2017-04-03T06:18:43.569Z,1021.39
2017-04-03T06:19:29.136Z,1021.41
2017-04-03T06:20:09.789Z,1021.4
2017-04-03T06:20:50.446Z,1021.38
2017-04-03T06:21:31.091Z,1021.4
2017-04-03T06:22:12.777Z,1021.45
2017-04-03T06:22:53.344Z,1021.41
2017-04-03T06:23:34.945Z,1021.41
2017-04-03T06:24:15.613Z,1021.43
2017-04-03T06:24:56.305Z,1021.42
2017-04-03T06:25:36.922Z,1021.43
2017-04-03T06:26:17.557Z,1021.43
2017-04-03T06:26:59.191Z,1021.41
2017-04-03T06:27:39.834Z,1021.45
2017-04-03T06:28:20.435Z,1021.38
2017-04-03T06:29:01.096Z,1021.42
2017-04-03T06:29:41.693Z,1021.45
2017-04-03T06:30:22.375Z,1021.42
2017-04-03T06:31:02.973Z,1021.45
2017-04-03T06:31:48.535Z,1021.42
2017-04-03T06:32:29.228Z,1021.41
2017-04-03T06:33:10.894Z,1021.47
2017-04-03T06:33:51.458Z,1021.45
2017-04-03T06:34:33.082Z,1021.44
2017-04-03T06:35:13.794Z,1021.47
2017-04-03T06:35:54.436Z,1021.44
2017-04-03T06:36:34.987Z,1021.45
2017-04-03T06:37:15.598Z,1021.46
2017-04-03T06:37:56.187Z,1021.44
2017-04-03T06:38:37.859Z,1021.43
2017-04-03T06:39:18.420Z,1021.43
2017-04-03T06:39:59.050Z,1021.44
2017-04-03T06:40:40.639Z,1021.46
2017-04-03T06:41:21.248Z,1021.45
2017-04-03T06:42:01.802Z,1021.44
2017-04-03T06:42:43.182Z,1021.45
2017-04-03T06:43:25.589Z,1021.44
2017-04-03T06:44:06.265Z,1021.45
2017-04-03T06:44:46.908Z,1021.45
2017-04-03T06:45:27.567Z,1021.45
2017-04-03T06:46:08.935Z,1021.47
2017-04-03T06:46:49.587Z,1021.49
2017-04-03T06:47:30.205Z,1021.43
2017-04-03T06:48:10.762Z,1021.5
2017-04-03T06:48:51.354Z,1021.49
2017-04-03T06:49:33.944Z,1021.49
2017-04-03T06:50:14.501Z,1021.54
2017-04-03T06:50:55.091Z,1021.5
2017-04-03T06:51:35.668Z,1021.51
2017-04-03T06:52:17.245Z,1021.56
2017-04-03T06:52:57.817Z,1021.52
2017-04-03T06:53:40.383Z,1021.58
2017-04-03T06:54:20.951Z,1021.56
2017-04-03T06:55:02.522Z,1021.56
2017-04-03T06:55:43.199Z,1021.58
2017-04-03T06:56:25.847Z,1021.56
2017-04-03T06:57:06.865Z,1021.59
2017-04-03T06:57:47.437Z,1021.6
2017-04-03T06:58:28.028Z,1021.59
2017-04-03T06:59:08.614Z,1021.61
2017-04-03T06:59:49.220Z,1021.63
2017-04-03T07:00:29.839Z,1021.59
2017-04-03T07:01:10.392Z,1021.61
2017-04-03T07:01:57.606Z,1021.6
2017-04-03T07:02:43.095Z,1021.64
2017-04-03T07:03:23.667Z,1021.64
2017-04-03T07:04:04.299Z,1021.66
2017-04-03T07:04:44.881Z,1021.68
2017-04-03T07:05:30.110Z,1021.65
2017-04-03T07:06:10.663Z,1021.68
2017-04-03T07:06:53.235Z,1021.67
2017-04-03T07:07:33.819Z,1021.66
2017-04-03T07:08:15.378Z,1021.67
2017-04-03T07:08:55.952Z,1021.68
2017-04-03T07:09:37.666Z,1021.67
2017-04-03T07:10:19.240Z,1021.66
2017-04-03T07:10:59.800Z,1021.62
2017-04-03T07:11:40.398Z,1021.66
2017-04-03T07:12:20.992Z,1021.68
2017-04-03T07:13:01.552Z,1021.67
2017-04-03T07:13:47.964Z,1021.71
2017-04-03T07:14:29.549Z,1021.68
2017-04-03T07:15:10.106Z,1021.64
2017-04-03T07:15:50.675Z,1021.7
2017-04-03T07:16:31.260Z,1021.72
2017-04-03T07:17:11.820Z,1021.71
2017-04-03T07:17:52.399Z,1021.67
2017-04-03T07:18:32.948Z,1021.69
2017-04-03T07:19:15.510Z,1021.71
2017-04-03T07:19:56.093Z,1021.71
2017-04-03T07:20:38.256Z,1021.7
2017-04-03T07:21:18.827Z,1021.7
2017-04-03T07:21:59.384Z,1021.74
2017-04-03T07:22:39.973Z,1021.71
2017-04-03T07:23:20.561Z,1021.68
2017-04-03T07:24:01.153Z,1021.68
2017-04-03T07:24:41.729Z,1021.71
2017-04-03T07:25:22.285Z,1021.67
2017-04-03T07:26:02.887Z,1021.65
2017-04-03T07:26:43.460Z,1021.67
2017-04-03T07:27:24.028Z,1021.68
2017-04-03T07:28:04.609Z,1021.71
2017-04-03T07:28:45.170Z,1021.71
2017-04-03T07:29:25.722Z,1021.74
2017-04-03T07:30:06.289Z,1021.74
2017-04-03T07:30:46.881Z,1021.75
2017-04-03T07:31:27.559Z,1021.73
2017-04-03T07:32:08.137Z,1021.76
2017-04-03T07:32:49.670Z,1021.79
2017-04-03T07:33:30.253Z,1021.79
2017-04-03T07:34:12.825Z,1021.8
2017-04-03T07:34:55.400Z,1021.78
2017-04-03T07:35:35.991Z,1021.81
2017-04-03T07:36:16.557Z,1021.78
2017-04-03T07:36:57.137Z,1021.76
2017-04-03T07:37:37.705Z,1021.81
2017-04-03T07:38:18.290Z,1021.8
2017-04-03T07:38:59.842Z,1021.79
2017-04-03T07:39:40.529Z,1021.81
2017-04-03T07:40:21.097Z,1021.84
2017-04-03T07:41:01.681Z,1021.82
2017-04-03T07:41:42.242Z,1021.79
2017-04-03T07:42:22.817Z,1021.82
2017-04-03T07:43:03.376Z,1021.85
2017-04-03T07:43:44.845Z,1021.83
2017-04-03T07:44:25.404Z,1021.86
2017-04-03T07:45:06.050Z,1021.86
2017-04-03T07:45:46.713Z,1021.84
2017-04-03T07:46:27.271Z,1021.86
2017-04-03T07:47:07.907Z,1021.86
2017-04-03T07:47:48.558Z,1021.86
2017-04-03T07:48:29.219Z,1021.85
2017-04-03T07:49:14.685Z,1021.92
2017-04-03T07:49:56.364Z,1021.92
2017-04-03T07:50:37.007Z,1021.91
2017-04-03T07:51:17.669Z,1021.93
2017-04-03T07:51:58.322Z,1021.95
2017-04-03T07:52:40.922Z,1021.94
2017-04-03T07:53:21.498Z,1021.89
2017-04-03T07:54:03.241Z,1021.93
2017-04-03T07:54:43.814Z,1021.91
2017-04-03T07:55:26.455Z,1021.92
2017-04-03T07:56:07.042Z,1021.92
2017-04-03T07:56:47.706Z,1021.97
2017-04-03T07:57:28.256Z,1021.95
2017-04-03T07:58:08.976Z,1021.98
2017-04-03T07:58:49.616Z,1021.96
2017-04-03T07:59:31.305Z,1021.99
2017-04-03T08:00:11.946Z,1021.99
2017-04-03T08:00:52.603Z,1021.98
2017-04-03T08:01:33.256Z,1021.99
2017-04-03T08:02:14.284Z,1021.99
2017-04-03T08:02:55.184Z,1022
2017-04-03T08:03:35.893Z,1022
2017-04-03T08:04:16.445Z,1021.99
2017-04-03T08:04:57.070Z,1022.02
2017-04-03T08:05:42.646Z,1022
2017-04-03T08:06:23.201Z,1021.99
2017-04-03T08:07:03.882Z,1022
2017-04-03T08:07:49.213Z,1021.99
2017-04-03T08:08:29.759Z,1021.97
2017-04-03T08:09:10.420Z,1022.01
2017-04-03T08:09:51.078Z,1021.97
2017-04-03T08:10:31.721Z,1021.98
2017-04-03T08:11:12.374Z,1021.96
2017-04-03T08:11:54.057Z,1021.96
2017-04-03T08:12:34.706Z,1022.01
2017-04-03T08:13:15.369Z,1021.99
2017-04-03T08:13:56.000Z,1021.98
2017-04-03T08:14:36.658Z,1022.03
2017-04-03T08:15:17.306Z,1021.99
2017-04-03T08:15:57.964Z,1022
2017-04-03T08:16:38.628Z,1022
2017-04-03T08:17:19.271Z,1022.01
2017-04-03T08:18:00.955Z,1022.03
2017-04-03T08:18:43.547Z,1022.01
2017-04-03T08:19:24.140Z,1022
2017-04-03T08:20:04.761Z,1022.02
2017-04-03T08:20:46.423Z,1022.01
2017-04-03T08:21:27.006Z,1022.05
2017-04-03T08:22:07.688Z,1022.03
2017-04-03T08:22:48.383Z,1022
2017-04-03T08:23:30.056Z,1022.03
2017-04-03T08:24:10.715Z,1022.02
2017-04-03T08:24:51.367Z,1022.06
2017-04-03T08:25:32.031Z,1022.05
2017-04-03T08:26:12.673Z,1022.08